createdAt,value
2023-02-19T00:08:18.253Z,11.10
2023-02-19T00:10:47.363Z,10.60
2023-02-19T00:20:46.873Z,10.60
2023-02-19T00:23:16.826Z,10.10
2023-02-19T00:25:49.330Z,10.50
2023-02-19T00:33:21.029Z,10.80
2023-02-19T00:38:22.621Z,10.40
2023-02-19T00:43:21.352Z,10.40
2023-02-19T00:53:22.275Z,10.40
2023-02-19T00:55:51.004Z,10.50
2023-02-19T01:10:57.214Z,10.30
2023-02-19T01:13:26.519Z,10.30
2023-02-19T01:18:24.307Z,10.30
2023-02-19T01:20:52.733Z,10.00
2023-02-19T01:23:21.206Z,10.20
2023-02-19T01:25:49.474Z,10.20
2023-02-19T01:28:20.930Z,10.20
2023-02-19T01:33:21.459Z,10.20
2023-02-19T01:40:58.373Z,10.00
2023-02-19T01:43:28.111Z,9.90
2023-02-19T01:45:59.169Z,9.80
2023-02-19T01:48:29.100Z,9.70
2023-02-19T01:51:05.003Z,9.70
2023-02-19T01:53:38.797Z,9.20
2023-02-19T01:56:10.054Z,9.40
2023-02-19T01:58:42.124Z,8.60
2023-02-19T02:01:14.205Z,10.30
2023-02-19T02:03:44.954Z,9.50
2023-02-19T02:06:23.011Z,9.40
2023-02-19T02:09:07.896Z,9.50
2023-02-19T02:14:09.568Z,9.50
2023-02-19T02:16:45.180Z,9.50
2023-02-19T02:19:31.103Z,9.30
2023-02-19T02:22:13.536Z,9.30
2023-02-19T02:25:27.027Z,9.40
2023-02-19T02:28:19.196Z,8.70
2023-02-19T02:31:01.076Z,9.40
2023-02-19T02:33:40.696Z,9.30
2023-02-19T02:36:13.923Z,9.30
2023-02-19T02:38:47.549Z,9.80
2023-02-19T02:41:17.443Z,9.80
2023-02-19T02:46:25.428Z,9.30
2023-02-19T02:48:57.492Z,9.30
2023-02-19T02:51:31.994Z,9.30
2023-02-19T02:54:23.978Z,9.30
2023-02-19T02:56:54.338Z,9.30
2023-02-19T02:59:27.673Z,9.30
2023-02-19T03:02:12.155Z,9.30
2023-02-19T03:05:12.246Z,9.20
2023-02-19T03:07:46.437Z,9.30
2023-02-19T03:10:21.213Z,9.20
2023-02-19T03:13:10.784Z,9.30
2023-02-19T03:16:03.895Z,9.30
2023-02-19T03:19:04.356Z,9.30
2023-02-19T03:21:36.031Z,9.30
2023-02-19T03:24:23.375Z,9.30
2023-02-19T03:26:53.996Z,9.20
2023-02-19T03:29:24.374Z,9.30
2023-02-19T03:31:57.005Z,9.30
2023-02-19T03:34:30.565Z,9.30
2023-02-19T03:37:04.923Z,9.30
2023-02-19T03:39:44.387Z,9.30
2023-02-19T03:42:21.248Z,9.30
2023-02-19T03:45:03.650Z,9.30
2023-02-19T03:47:38.424Z,9.60
2023-02-19T03:50:17.921Z,8.40
2023-02-19T03:52:55.341Z,9.30
2023-02-19T03:55:29.825Z,9.30
2023-02-19T03:58:04.472Z,9.30
2023-02-19T04:00:40.040Z,9.20
2023-02-19T04:03:16.489Z,9.20
2023-02-19T04:05:50.774Z,9.20
2023-02-19T04:08:21.544Z,9.20
2023-02-19T04:10:52.948Z,9.20
2023-02-19T04:13:24.712Z,9.00
2023-02-19T04:15:56.986Z,9.20
2023-02-19T04:18:30.784Z,9.30
2023-02-19T04:21:03.468Z,9.30
2023-02-19T04:23:40.564Z,9.30
2023-02-19T04:26:10.185Z,9.30
2023-02-19T04:28:48.289Z,9.30
2023-02-19T04:36:15.526Z,9.30
2023-02-19T04:38:43.695Z,8.50
2023-02-19T04:41:17.112Z,9.40
2023-02-19T04:46:15.270Z,9.20
2023-02-19T04:51:19.691Z,9.30
2023-02-19T05:06:20.767Z,9.10
2023-02-19T05:11:17.336Z,9.60
2023-02-19T05:13:46.965Z,9.30
2023-02-19T05:16:16.543Z,9.30
2023-02-19T05:18:47.601Z,9.40
2023-02-19T05:21:17.699Z,9.40
2023-02-19T05:26:18.432Z,9.30
2023-02-19T05:33:52.085Z,9.30
2023-02-19T05:36:23.145Z,9.30
2023-02-19T05:38:54.842Z,9.30
2023-02-19T05:41:24.994Z,9.30
2023-02-19T05:46:27.948Z,9.30
2023-02-19T05:51:35.267Z,9.30
2023-02-19T05:56:34.924Z,9.20
2023-02-19T05:59:06.542Z,9.30
2023-02-19T06:01:37.407Z,9.30
2023-02-19T06:06:35.596Z,9.30
2023-02-19T06:14:01.861Z,8.10
2023-02-19T06:24:09.172Z,9.60
2023-02-19T06:31:35.525Z,9.70
2023-02-19T06:34:06.381Z,9.70
2023-02-19T06:39:07.325Z,9.70
2023-02-19T06:44:07.797Z,8.50
2023-02-19T06:49:07.211Z,10.00
2023-02-19T06:54:10.429Z,10.00
2023-02-19T06:56:40.551Z,10.00
2023-02-19T06:59:11.681Z,10.00
2023-02-19T07:01:42.151Z,10.00
2023-02-19T07:09:11.239Z,10.50
2023-02-19T07:11:41.105Z,10.20
2023-02-19T07:14:18.326Z,10.00
2023-02-19T07:19:19.460Z,10.10
2023-02-19T07:24:22.740Z,10.20
2023-02-19T07:39:22.533Z,10.40
2023-02-19T07:56:47.294Z,10.50
2023-02-19T08:07:01.756Z,10.60
2023-02-19T08:12:18.203Z,10.70
2023-02-19T08:19:49.282Z,10.80
2023-02-19T08:22:21.604Z,9.80
2023-02-19T08:27:30.247Z,11.00
2023-02-19T08:30:04.198Z,11.00
2023-02-19T08:40:22.529Z,11.20
2023-02-19T08:45:23.193Z,11.30
2023-02-19T08:57:53.568Z,11.50
2023-02-19T09:00:25.656Z,11.50
2023-02-19T09:17:56.868Z,12.00
2023-02-19T09:23:01.650Z,11.90
2023-02-19T09:28:04.485Z,11.70
2023-02-19T09:30:34.677Z,11.80
2023-02-19T09:40:43.441Z,11.90
2023-02-19T09:43:19.482Z,11.90
2023-02-19T09:45:56.639Z,11.90
2023-02-19T09:50:58.117Z,11.90
2023-02-19T09:53:31.504Z,12.00
2023-02-19T09:56:03.130Z,12.00
2023-02-19T09:58:35.534Z,12.10
2023-02-19T10:01:13.086Z,12.10
2023-02-19T10:03:46.955Z,12.30
2023-02-19T10:06:23.517Z,12.40
2023-02-19T10:08:54.254Z,13.60
2023-02-19T10:11:32.798Z,12.50
2023-02-19T10:14:18.448Z,12.50
2023-02-19T10:19:18.654Z,12.60
2023-02-19T10:24:25.771Z,12.80
2023-02-19T10:32:24.359Z,13.00
2023-02-19T10:35:16.809Z,13.00
2023-02-19T10:37:52.362Z,13.00
2023-02-19T10:40:24.011Z,13.00
2023-02-19T10:42:55.567Z,13.20
2023-02-19T10:45:27.919Z,13.30
2023-02-19T10:47:59.267Z,13.20
2023-02-19T10:50:32.273Z,13.20
2023-02-19T10:53:03.549Z,12.90
2023-02-19T10:55:40.820Z,13.30
2023-02-19T10:58:34.536Z,13.20
2023-02-19T11:01:19.540Z,13.30
2023-02-19T11:03:53.758Z,13.30
2023-02-19T11:06:28.595Z,12.90
2023-02-19T11:09:00.202Z,13.40
2023-02-19T11:11:38.670Z,13.60
2023-02-19T11:14:19.314Z,13.70
2023-02-19T11:16:52.628Z,13.50
2023-02-19T11:19:40.048Z,13.40
2023-02-19T11:22:31.879Z,13.50
2023-02-19T11:25:05.401Z,13.60
2023-02-19T11:27:35.221Z,13.30
2023-02-19T11:30:26.146Z,13.40
2023-02-19T11:35:25.605Z,13.40
2023-02-19T11:38:02.198Z,13.50
2023-02-19T11:40:41.112Z,13.40
2023-02-19T11:43:24.579Z,13.40
2023-02-19T11:46:00.689Z,13.40
2023-02-19T11:48:44.858Z,13.50
2023-02-19T11:52:08.716Z,13.60
2023-02-19T11:54:57.302Z,13.40
2023-02-19T11:57:59.493Z,13.70
2023-02-19T12:00:30.388Z,13.50
2023-02-19T12:03:18.263Z,13.60
2023-02-19T12:05:58.514Z,13.60
2023-02-19T12:08:54.658Z,13.60
2023-02-19T12:11:42.002Z,13.90
2023-02-19T12:14:41.535Z,14.10
2023-02-19T12:17:16.090Z,14.40
2023-02-19T12:19:56.776Z,14.50
2023-02-19T12:22:34.847Z,14.70
2023-02-19T12:25:34.325Z,14.00
2023-02-19T12:28:26.286Z,13.30
2023-02-19T12:31:21.200Z,13.60
2023-02-19T12:34:27.470Z,13.50
2023-02-19T12:37:08.041Z,13.10
2023-02-19T12:39:47.734Z,13.40
2023-02-19T12:42:41.253Z,13.40
2023-02-19T12:45:16.743Z,13.70
2023-02-19T12:47:54.450Z,13.50
2023-02-19T12:50:27.020Z,13.40
2023-02-19T12:53:03.223Z,13.80
2023-02-19T12:55:37.492Z,11.60
2023-02-19T12:58:13.976Z,13.80
2023-02-19T13:00:45.665Z,14.40
2023-02-19T13:03:22.119Z,13.80
2023-02-19T13:06:00.850Z,13.50
2023-02-19T13:08:36.550Z,13.80
2023-02-19T13:11:11.494Z,13.80
2023-02-19T13:13:53.310Z,13.80
2023-02-19T13:16:23.370Z,13.70
2023-02-19T13:18:56.328Z,13.70
2023-02-19T13:21:45.356Z,13.70
2023-02-19T13:24:17.593Z,14.10
2023-02-19T13:27:14.079Z,13.70
2023-02-19T13:30:05.600Z,13.70
2023-02-19T13:32:56.801Z,13.80
2023-02-19T13:35:36.928Z,13.70
2023-02-19T13:38:08.749Z,13.80
2023-02-19T13:40:42.289Z,13.80
2023-02-19T13:43:26.648Z,13.80
2023-02-19T13:46:02.775Z,13.90
2023-02-19T13:48:35.916Z,13.80
2023-02-19T13:51:41.779Z,13.20
2023-02-19T13:54:26.662Z,13.80
2023-02-19T13:57:27.710Z,14.00
2023-02-19T13:59:57.513Z,13.50
2023-02-19T14:03:12.519Z,13.30
2023-02-19T14:06:01.417Z,13.00
2023-02-19T14:08:50.199Z,13.70
2023-02-19T14:11:19.684Z,13.50
2023-02-19T14:14:06.814Z,13.00
2023-02-19T14:17:05.806Z,13.70
2023-02-19T14:20:06.801Z,13.50
2023-02-19T14:23:16.093Z,12.80
2023-02-19T14:25:55.202Z,12.80
2023-02-19T14:28:36.275Z,12.90
2023-02-19T14:31:14.981Z,13.20
2023-02-19T14:33:48.604Z,12.90
2023-02-19T14:36:31.159Z,13.00
2023-02-19T14:39:04.248Z,13.00
2023-02-19T14:41:34.263Z,13.00
2023-02-19T14:44:05.033Z,12.70
2023-02-19T14:46:41.437Z,13.10
2023-02-19T14:49:21.783Z,13.10
2023-02-19T14:51:54.582Z,13.00
2023-02-19T14:54:38.066Z,13.10
2023-02-19T14:57:12.531Z,13.00
2023-02-19T14:59:40.727Z,13.00
2023-02-19T15:02:18.081Z,12.90
2023-02-19T15:07:20.100Z,12.20
2023-02-19T15:09:53.292Z,12.80
2023-02-19T15:12:28.413Z,12.90
2023-02-19T15:15:00.927Z,12.60
2023-02-19T15:17:33.947Z,12.90
2023-02-19T15:20:05.474Z,12.70
2023-02-19T15:25:12.449Z,12.70
2023-02-19T15:30:20.761Z,12.70
2023-02-19T15:32:58.121Z,13.00
2023-02-19T15:35:35.401Z,12.60
2023-02-19T15:38:03.698Z,12.60
2023-02-19T15:40:38.772Z,12.40
2023-02-19T15:43:07.134Z,12.40
2023-02-19T15:45:47.183Z,12.30
2023-02-19T15:48:20.814Z,12.20
2023-02-19T15:50:52.855Z,12.10
2023-02-19T15:53:26.015Z,12.10
2023-02-19T15:56:08.201Z,12.00
2023-02-19T15:58:43.053Z,11.70
2023-02-19T16:01:22.837Z,11.60
2023-02-19T16:09:02.499Z,11.00
2023-02-19T16:11:37.969Z,10.60
2023-02-19T16:14:29.752Z,10.70
2023-02-19T16:17:00.849Z,10.70
2023-02-19T16:19:36.592Z,10.10
2023-02-19T16:22:05.848Z,10.10
2023-02-19T16:24:38.787Z,10.00
2023-02-19T16:29:42.243Z,10.00
2023-02-19T16:32:18.558Z,9.80
2023-02-19T16:34:51.083Z,10.00
2023-02-19T16:37:33.791Z,9.70
2023-02-19T16:40:52.582Z,9.90
2023-02-19T16:43:44.918Z,9.90
2023-02-19T16:46:18.902Z,9.90
2023-02-19T16:48:48.203Z,9.90
2023-02-19T16:51:24.502Z,9.90
2023-02-19T16:53:55.470Z,10.10
2023-02-19T16:56:30.934Z,9.90
2023-02-19T17:01:32.018Z,9.80
2023-02-19T17:04:06.299Z,9.80
2023-02-19T17:14:09.256Z,10.90
2023-02-19T17:19:13.820Z,9.70
2023-02-19T17:21:43.172Z,9.80
2023-02-19T17:29:20.603Z,9.10
2023-02-19T17:31:48.877Z,9.60
2023-02-19T17:36:49.545Z,9.80
2023-02-19T17:39:20.086Z,9.70
2023-02-19T17:44:21.105Z,9.80
2023-02-19T17:49:25.115Z,8.10
2023-02-19T18:14:35.699Z,9.70
2023-02-19T18:29:35.034Z,9.70
2023-02-19T18:44:32.663Z,9.60
2023-02-19T18:52:03.461Z,9.60
2023-02-19T19:17:00.321Z,9.40
2023-02-19T19:21:59.940Z,9.30
2023-02-19T19:34:23.555Z,9.20
2023-02-19T19:36:54.743Z,9.20
2023-02-19T19:41:55.748Z,9.20
2023-02-19T19:44:24.546Z,9.20
2023-02-19T19:46:55.529Z,9.00
2023-02-19T19:49:25.427Z,9.20
2023-02-19T20:01:52.663Z,9.40
2023-02-19T20:04:23.436Z,9.10
2023-02-19T20:06:52.968Z,9.10
2023-02-19T20:11:54.515Z,9.10
2023-02-19T20:14:24.442Z,9.10
2023-02-19T20:19:22.708Z,9.10
2023-02-19T20:21:54.172Z,9.10
2023-02-19T20:24:24.993Z,9.10
2023-02-19T20:31:53.559Z,9.10
2023-02-19T20:39:30.589Z,9.20
2023-02-19T20:42:00.479Z,9.10
2023-02-19T20:44:30.474Z,9.20
2023-02-19T20:47:00.037Z,9.20
2023-02-19T20:49:30.386Z,9.20
2023-02-19T20:52:00.534Z,9.20
2023-02-19T20:54:31.504Z,9.20
2023-02-19T20:57:02.235Z,9.20
2023-02-19T20:59:37.658Z,9.20
2023-02-19T21:02:08.134Z,9.20
2023-02-19T21:04:40.516Z,9.30
2023-02-19T21:09:39.209Z,9.20
2023-02-19T21:12:08.050Z,9.90
2023-02-19T21:17:05.953Z,9.20
2023-02-19T21:27:06.629Z,9.10
2023-02-19T21:42:06.716Z,9.50
2023-02-19T21:59:28.929Z,9.20
2023-02-19T22:11:55.235Z,9.20
2023-02-19T22:16:53.353Z,9.10
2023-02-19T22:24:21.489Z,9.10
2023-02-19T22:34:20.685Z,9.20
2023-02-19T22:39:22.582Z,9.20
2023-02-19T22:41:51.549Z,9.30
2023-02-19T22:44:21.897Z,9.30
2023-02-19T22:46:53.252Z,9.30
2023-02-19T22:49:26.071Z,9.30
2023-02-19T22:51:57.739Z,9.40
2023-02-19T23:01:53.956Z,9.40
2023-02-19T23:04:25.160Z,9.30
2023-02-19T23:06:55.093Z,9.40
2023-02-19T23:09:25.378Z,9.40
2023-02-19T23:11:54.536Z,9.40
2023-02-19T23:14:24.317Z,9.40
2023-02-19T23:21:52.368Z,9.40
2023-02-19T23:26:54.567Z,9.40
2023-02-19T23:29:26.164Z,9.80
2023-02-19T23:32:00.875Z,9.40
2023-02-19T23:36:59.520Z,9.30
2023-02-19T23:42:00.092Z,9.30
2023-02-19T23:54:30.874Z,9.10
2023-02-19T23:59:35.083Z,9.10
